createdAt,value
2018-09-10T00:08:13.686Z,14.7
2018-09-10T00:18:28.295Z,14.7
2018-09-10T00:28:42.694Z,14.4
2018-09-10T00:38:58.057Z,14.1
2018-09-10T00:49:12.571Z,14.2
2018-09-10T00:59:28.370Z,14.3
2018-09-10T01:09:43.422Z,14.3
2018-09-10T01:19:58.244Z,14.2
2018-09-10T01:30:13.042Z,14.1
2018-09-10T01:40:28.151Z,13.7
2018-09-10T01:50:41.882Z,13.8
2018-09-10T02:00:57.470Z,14.1
2018-09-10T02:11:13.130Z,13.7
2018-09-10T02:21:28.524Z,13.7
2018-09-10T02:31:42.931Z,13.7
2018-09-10T02:41:58.313Z,13.4
2018-09-10T02:52:12.833Z,13.4
2018-09-10T03:02:27.081Z,13.4
2018-09-10T03:12:42.201Z,13.1
2018-09-10T03:22:56.439Z,13.2
2018-09-10T03:33:11.210Z,13.5
2018-09-10T03:43:25.614Z,13.5
2018-09-10T03:53:39.345Z,13.6
2018-09-10T04:03:54.458Z,13.8
2018-09-10T04:14:09.767Z,14.3
2018-09-10T04:24:24.811Z,14.1
2018-09-10T04:34:39.216Z,14.4
2018-09-10T04:44:54.675Z,14.7
2018-09-10T04:55:09.229Z,15
2018-09-10T05:05:24.533Z,15
2018-09-10T05:15:38.466Z,14.8
2018-09-10T05:25:53.767Z,14.7
2018-09-10T05:36:08.072Z,14.4
2018-09-10T05:46:23.262Z,14.5
2018-09-10T05:56:38.138Z,14.6
2018-09-10T06:06:52.266Z,14.9
2018-09-10T06:17:07.355Z,15.5
2018-09-10T06:27:21.122Z,16.1
2018-09-10T06:37:35.702Z,16.5
2018-09-10T06:47:51.500Z,16.8
2018-09-10T06:58:07.367Z,17
2018-09-10T07:08:21.637Z,17.2
2018-09-10T07:18:35.715Z,17.3
2018-09-10T07:28:51.284Z,17.9
2018-09-10T07:39:06.522Z,19
2018-09-10T07:49:20.671Z,18.5
2018-09-10T07:59:36.514Z,18.4
2018-09-10T08:09:51.112Z,18.2
2018-09-10T08:20:04.876Z,18.2
2018-09-10T08:30:19.713Z,18.4
2018-09-10T08:40:34.122Z,18.7
2018-09-10T08:50:49.926Z,18.9
2018-09-10T09:01:04.834Z,18.9
2018-09-10T09:11:19.863Z,19.4
2018-09-10T09:21:33.736Z,19.4
2018-09-10T09:31:49.370Z,19.9
2018-09-10T09:42:04.317Z,20.3
2018-09-10T09:52:18.541Z,20.1
2018-09-10T10:02:33.495Z,20
2018-09-10T10:12:47.679Z,20.3
2018-09-10T10:23:01.746Z,20.3
2018-09-10T10:33:17.311Z,20.1
2018-09-10T10:43:32.306Z,20.1
2018-09-10T10:53:47.137Z,20.1
2018-09-10T11:04:01.933Z,19.9
2018-09-10T11:14:17.258Z,20.8
2018-09-10T11:24:31.801Z,21.4
2018-09-10T11:34:46.521Z,20.9
2018-09-10T11:45:01.731Z,20.6
2018-09-10T12:05:31.127Z,21.1
2018-09-10T12:15:46.863Z,20.9
2018-09-10T12:26:01.186Z,20.9
2018-09-10T12:36:16.321Z,21.1
2018-09-10T12:46:31.316Z,21.5
2018-09-10T12:56:46.392Z,21.5
2018-09-10T13:07:01.042Z,21.1
2018-09-10T13:17:16.777Z,22.2
2018-09-10T13:27:31.867Z,21.9
2018-09-10T13:37:46.378Z,21.5
2018-09-10T13:48:01.200Z,21.5
2018-09-10T13:58:16.374Z,21.4
2018-09-10T14:08:31.263Z,21.6
2018-09-10T14:18:46.518Z,21.6
2018-09-10T14:29:01.662Z,21.3
2018-09-10T14:39:16.089Z,21.2
2018-09-10T14:49:30.564Z,21.2
2018-09-10T14:59:46.046Z,21.3
2018-09-10T15:10:01.795Z,21.1
2018-09-10T15:20:17.219Z,21
2018-09-10T15:30:32.345Z,20.8
2018-09-10T15:40:47.118Z,20.7
2018-09-10T15:51:00.987Z,20.8
2018-09-10T16:01:15.352Z,20.7
2018-09-10T16:11:30.541Z,20.6
2018-09-10T16:21:45.480Z,20.4
2018-09-10T16:32:00.025Z,20.3
2018-09-10T16:42:15.646Z,20.2
2018-09-10T16:52:30.389Z,20
2018-09-10T17:02:45.604Z,19.9
2018-09-10T17:12:59.500Z,19.6
2018-09-10T17:23:13.773Z,19.4
2018-09-10T17:33:28.029Z,19.2
2018-09-10T17:43:43.609Z,19
2018-09-10T17:53:59.331Z,18.5
2018-09-10T18:04:13.631Z,18.4
2018-09-10T18:14:28.112Z,18.1
2018-09-10T18:24:43.001Z,17.9
2018-09-10T18:34:57.557Z,17.7
2018-09-10T18:45:12.599Z,17.4
2018-09-10T18:55:26.576Z,16.9
2018-09-10T19:05:40.956Z,16.7
2018-09-10T19:15:55.794Z,16.8
2018-09-10T19:26:11.058Z,16.8
2018-09-10T19:36:25.578Z,16.7
2018-09-10T19:46:40.344Z,16.8
2018-09-10T19:56:55.572Z,16.5
2018-09-10T20:07:10.047Z,16.3
2018-09-10T20:17:25.754Z,16.5
2018-09-10T20:27:41.378Z,16.5
2018-09-10T20:37:56.273Z,16.2
2018-09-10T20:48:10.262Z,15.9
2018-09-10T20:58:24.246Z,15.7
2018-09-10T21:08:38.620Z,15.3
2018-09-10T21:18:53.626Z,15.3
2018-09-10T21:29:09.209Z,15.1
2018-09-10T21:39:24.488Z,14.9
2018-09-10T21:49:39.168Z,14.8
2018-09-10T21:59:54.220Z,14.8
2018-09-10T22:10:07.997Z,14.5
2018-09-10T22:20:22.365Z,14.4
2018-09-10T22:30:36.283Z,14.5
2018-09-10T22:40:50.746Z,14.6
2018-09-10T22:51:05.865Z,14.6
2018-09-10T23:01:20.357Z,14.6
2018-09-10T23:11:35.574Z,14.8
2018-09-10T23:21:50.342Z,14.8
2018-09-10T23:32:05.379Z,14.8
2018-09-10T23:42:20.132Z,14.8
2018-09-10T23:52:34.677Z,14.8
